createdAt,value
2019-03-30T00:00:38.015Z,19.17
2019-03-30T00:03:05.780Z,14.57
2019-03-30T00:05:33.603Z,12.33
2019-03-30T00:08:04.363Z,14.03
2019-03-30T00:10:32.283Z,10.63
2019-03-30T00:13:00.119Z,11.50
2019-03-30T00:15:27.971Z,11.10
2019-03-30T00:17:55.740Z,12.00
2019-03-30T00:20:23.518Z,11.67
2019-03-30T00:22:51.318Z,11.73
2019-03-30T00:25:19.117Z,12.13
2019-03-30T00:27:47.180Z,11.60
2019-03-30T00:30:15.222Z,8.57
2019-03-30T00:32:43.005Z,12.20
2019-03-30T00:35:10.818Z,16.17
2019-03-30T00:37:38.631Z,10.43
2019-03-30T00:40:06.634Z,12.03
2019-03-30T00:42:34.450Z,9.10
2019-03-30T00:45:02.231Z,11.60
2019-03-30T00:47:30.029Z,7.93
2019-03-30T00:49:57.843Z,9.87
2019-03-30T00:52:25.756Z,9.80
2019-03-30T00:54:53.629Z,8.30
2019-03-30T00:57:21.567Z,7.83
2019-03-30T00:59:49.388Z,11.67
2019-03-30T01:02:17.212Z,8.97
2019-03-30T01:04:45.006Z,10.10
2019-03-30T01:07:12.811Z,7.00
2019-03-30T01:09:40.630Z,7.47
2019-03-30T01:12:08.423Z,7.40
2019-03-30T01:14:36.227Z,6.93
2019-03-30T01:17:04.095Z,7.97
2019-03-30T01:19:31.889Z,9.03
2019-03-30T01:21:59.683Z,8.53
2019-03-30T01:24:27.487Z,8.47
2019-03-30T01:26:55.283Z,8.43
2019-03-30T01:29:23.195Z,7.30
2019-03-30T01:31:50.972Z,10.53
2019-03-30T01:34:18.872Z,8.13
2019-03-30T01:36:46.675Z,8.40
2019-03-30T01:39:14.459Z,10.73
2019-03-30T01:41:42.250Z,11.77
2019-03-30T01:44:10.073Z,28.33
2019-03-30T01:46:37.955Z,52.07
2019-03-30T01:49:06.123Z,40.20
2019-03-30T01:51:34.392Z,54.53
2019-03-30T01:54:02.668Z,52.07
2019-03-30T01:56:30.855Z,49.43
2019-03-30T01:58:59.047Z,40.53
2019-03-30T02:01:27.278Z,41.60
2019-03-30T02:03:55.127Z,29.47
2019-03-30T02:06:22.911Z,28.00
2019-03-30T02:08:50.718Z,18.23
2019-03-30T02:11:18.511Z,16.10
2019-03-30T02:13:46.285Z,18.83
2019-03-30T02:16:14.059Z,11.23
2019-03-30T02:18:41.945Z,12.23
2019-03-30T02:21:09.855Z,12.10
2019-03-30T02:23:38.635Z,13.70
2019-03-30T02:26:06.484Z,12.50
2019-03-30T02:28:34.314Z,11.70
2019-03-30T02:31:02.096Z,10.40
2019-03-30T02:33:29.883Z,11.40
2019-03-30T02:35:57.677Z,11.17
2019-03-30T02:38:25.480Z,10.97
2019-03-30T02:40:53.289Z,8.67
2019-03-30T02:43:21.229Z,9.17
2019-03-30T02:45:49.027Z,8.57
2019-03-30T02:48:16.833Z,27.60
2019-03-30T02:50:50.174Z,19.40
2019-03-30T02:53:14.522Z,20.20
2019-03-30T02:55:42.379Z,17.47
2019-03-30T02:58:10.299Z,23.90
2019-03-30T03:00:38.085Z,15.10
2019-03-30T03:03:05.941Z,11.30
2019-03-30T03:05:33.764Z,15.73
2019-03-30T03:08:01.548Z,13.23
2019-03-30T03:10:29.327Z,24.53
2019-03-30T03:12:57.106Z,14.13
2019-03-30T03:15:24.895Z,9.40
2019-03-30T03:17:52.700Z,15.20
2019-03-30T03:20:20.583Z,10.60
2019-03-30T03:22:48.379Z,10.10
2019-03-30T03:25:16.145Z,13.07
2019-03-30T03:27:43.940Z,12.07
2019-03-30T03:30:12.337Z,8.13
2019-03-30T03:32:40.114Z,8.80
2019-03-30T03:35:08.140Z,7.50
2019-03-30T03:37:44.601Z,7.73
2019-03-30T03:40:07.562Z,11.70
2019-03-30T03:42:35.532Z,6.67
2019-03-30T03:45:04.188Z,17.47
2019-03-30T03:47:31.962Z,16.30
2019-03-30T03:49:59.760Z,16.73
2019-03-30T03:52:27.609Z,25.13
2019-03-30T03:54:55.719Z,30.77
2019-03-30T03:57:27.176Z,35.80
2019-03-30T03:59:57.048Z,19.13
2019-03-30T04:02:27.075Z,18.90
2019-03-30T04:04:56.946Z,9.50
2019-03-30T04:07:27.933Z,10.13
2019-03-30T04:09:59.368Z,6.93
2019-03-30T04:12:28.063Z,6.87
2019-03-30T04:14:59.384Z,10.27
2019-03-30T04:17:27.263Z,6.50
2019-03-30T04:19:55.071Z,9.93
2019-03-30T04:22:22.854Z,14.37
2019-03-30T04:24:50.869Z,8.87
2019-03-30T04:27:18.891Z,12.73
2019-03-30T04:29:46.674Z,9.23
2019-03-30T04:32:14.481Z,11.33
2019-03-30T04:34:42.293Z,8.33
2019-03-30T04:37:10.186Z,7.00
2019-03-30T04:39:37.984Z,10.10
2019-03-30T04:42:06.151Z,8.23
2019-03-30T04:44:33.953Z,8.77
2019-03-30T04:47:01.741Z,10.13
2019-03-30T04:49:29.664Z,8.17
2019-03-30T04:51:58.206Z,8.10
2019-03-30T04:54:26.127Z,10.50
2019-03-30T04:56:53.943Z,12.30
2019-03-30T04:59:21.748Z,9.43
2019-03-30T05:01:49.520Z,11.33
2019-03-30T05:04:17.323Z,11.43
2019-03-30T05:06:45.112Z,11.07
2019-03-30T05:09:12.932Z,10.50
2019-03-30T05:11:40.741Z,13.10
2019-03-30T05:14:08.518Z,11.20
2019-03-30T05:16:36.406Z,9.27
2019-03-30T05:19:04.219Z,8.83
2019-03-30T05:21:32.050Z,8.53
2019-03-30T05:23:59.867Z,11.23
2019-03-30T05:26:27.687Z,9.43
2019-03-30T05:28:55.566Z,11.20
2019-03-30T05:31:23.408Z,10.53
2019-03-30T05:33:51.271Z,9.07
2019-03-30T05:36:19.095Z,7.93
2019-03-30T05:38:46.906Z,10.40
2019-03-30T05:41:14.789Z,10.90
2019-03-30T05:43:42.659Z,11.90
2019-03-30T05:46:10.494Z,7.20
2019-03-30T05:48:38.295Z,13.87
2019-03-30T05:51:06.122Z,10.03
2019-03-30T05:53:33.903Z,9.83
2019-03-30T05:56:01.680Z,10.00
2019-03-30T05:58:29.492Z,9.87
2019-03-30T06:00:57.276Z,12.57
2019-03-30T06:03:25.104Z,13.80
2019-03-30T06:05:52.879Z,13.20
2019-03-30T06:08:20.697Z,16.27
2019-03-30T06:10:48.519Z,26.93
2019-03-30T06:13:16.313Z,31.03
2019-03-30T06:15:44.110Z,23.67
2019-03-30T06:18:11.935Z,20.20
2019-03-30T06:20:39.721Z,13.60
2019-03-30T06:23:07.507Z,15.23
2019-03-30T06:25:35.409Z,15.97
2019-03-30T06:28:03.424Z,17.07
2019-03-30T06:30:31.400Z,16.53
2019-03-30T06:32:59.175Z,11.23
2019-03-30T06:35:26.995Z,20.30
2019-03-30T06:37:54.799Z,17.03
2019-03-30T06:40:22.685Z,13.50
2019-03-30T06:42:50.603Z,15.47
2019-03-30T06:45:18.423Z,19.47
2019-03-30T06:47:46.249Z,18.83
2019-03-30T06:50:14.262Z,20.40
2019-03-30T06:52:56.343Z,23.93
2019-03-30T06:55:11.931Z,14.43
2019-03-30T06:57:39.713Z,17.60
2019-03-30T07:00:08.072Z,17.53
2019-03-30T07:02:36.242Z,17.50
2019-03-30T07:05:04.692Z,12.07
2019-03-30T07:07:32.497Z,11.77
2019-03-30T07:10:03.262Z,14.03
2019-03-30T07:12:34.840Z,18.70
2019-03-30T07:15:03.335Z,17.27
2019-03-30T07:17:33.896Z,16.97
2019-03-30T07:20:03.591Z,13.13
2019-03-30T07:22:31.363Z,15.47
2019-03-30T07:24:59.190Z,13.13
2019-03-30T07:27:27.051Z,16.63
2019-03-30T07:29:54.943Z,14.10
2019-03-30T07:32:22.751Z,12.60
2019-03-30T07:34:50.650Z,14.23
2019-03-30T07:37:18.523Z,14.53
2019-03-30T07:39:46.327Z,18.00
2019-03-30T07:42:14.318Z,14.90
2019-03-30T07:44:42.219Z,12.43
2019-03-30T07:47:09.993Z,13.90
2019-03-30T07:49:37.827Z,16.40
2019-03-30T07:52:05.729Z,13.73
2019-03-30T07:54:33.619Z,14.20
2019-03-30T07:57:06.184Z,13.97
2019-03-30T07:59:31.223Z,14.10
2019-03-30T08:01:59.092Z,24.73
2019-03-30T08:04:28.614Z,19.80
2019-03-30T08:06:58.168Z,19.47
2019-03-30T08:09:25.983Z,18.23
2019-03-30T08:11:53.936Z,27.00
2019-03-30T08:14:21.850Z,15.77
2019-03-30T08:16:49.833Z,16.87
2019-03-30T08:19:17.727Z,16.87
2019-03-30T08:21:45.501Z,17.53
2019-03-30T08:24:13.617Z,16.53
2019-03-30T08:26:41.412Z,23.37
2019-03-30T08:29:09.273Z,20.07
2019-03-30T08:31:37.078Z,17.40
2019-03-30T08:34:04.901Z,20.67
2019-03-30T08:36:32.691Z,17.70
2019-03-30T08:39:00.510Z,18.30
2019-03-30T08:41:28.330Z,26.67
2019-03-30T08:43:56.243Z,20.20
2019-03-30T08:46:24.071Z,20.40
2019-03-30T08:48:51.899Z,18.53
2019-03-30T08:51:20.959Z,18.83
2019-03-30T08:53:54.765Z,19.27
2019-03-30T08:56:18.627Z,18.70
2019-03-30T08:58:46.526Z,17.93
2019-03-30T09:01:14.312Z,18.47
2019-03-30T09:03:42.105Z,17.77
2019-03-30T09:06:09.913Z,16.40
2019-03-30T09:08:37.727Z,24.07
2019-03-30T09:11:05.491Z,17.87
2019-03-30T09:13:33.278Z,21.00
2019-03-30T09:16:01.159Z,18.13
2019-03-30T09:18:28.968Z,26.02
2019-03-30T09:20:56.752Z,21.77
2019-03-30T09:23:24.528Z,34.18
2019-03-30T09:25:52.312Z,54.95
2019-03-30T09:28:20.083Z,18.75
2019-03-30T09:30:47.849Z,22.32
2019-03-30T09:33:15.675Z,16.73
2019-03-30T09:35:43.568Z,19.52
2019-03-30T09:38:14.654Z,20.25
2019-03-30T09:40:41.127Z,20.68
2019-03-30T09:43:08.920Z,25.35
2019-03-30T09:45:36.717Z,20.10
2019-03-30T09:48:04.479Z,27.07
2019-03-30T09:50:32.318Z,23.60
2019-03-30T09:53:00.103Z,25.32
2019-03-30T09:55:27.875Z,24.60
2019-03-30T09:57:55.663Z,35.05
2019-03-30T10:00:23.487Z,36.42
2019-03-30T10:02:51.319Z,29.82
2019-03-30T10:05:19.227Z,24.05
2019-03-30T10:07:47.083Z,20.62
2019-03-30T10:10:14.874Z,24.10
2019-03-30T10:12:43.068Z,20.85
2019-03-30T10:15:10.956Z,20.57
2019-03-30T10:17:38.722Z,20.00
2019-03-30T10:20:07.428Z,21.17
2019-03-30T10:22:35.196Z,20.00
2019-03-30T10:25:03.027Z,21.90
2019-03-30T10:27:30.789Z,24.18
2019-03-30T10:29:58.575Z,19.20
2019-03-30T10:32:26.359Z,19.77
2019-03-30T10:34:54.120Z,23.00
2019-03-30T10:37:21.933Z,19.85
2019-03-30T10:39:49.730Z,22.35
2019-03-30T10:42:17.599Z,22.30
2019-03-30T10:44:45.385Z,23.40
2019-03-30T10:47:13.195Z,22.17
2019-03-30T10:49:41.001Z,28.73
2019-03-30T10:52:08.837Z,22.42
2019-03-30T10:54:36.721Z,25.57
2019-03-30T10:57:04.539Z,21.60
2019-03-30T10:59:32.307Z,26.80
2019-03-30T11:02:00.105Z,25.45
2019-03-30T11:04:28.083Z,33.30
2019-03-30T11:06:55.879Z,32.65
2019-03-30T11:09:23.664Z,27.35
2019-03-30T11:11:51.475Z,33.48
2019-03-30T11:14:19.307Z,20.27
2019-03-30T11:16:47.103Z,28.15
2019-03-30T11:19:14.912Z,48.85
2019-03-30T11:21:42.708Z,21.05
2019-03-30T11:24:10.708Z,42.30
2019-03-30T11:26:38.596Z,27.17
2019-03-30T11:29:06.504Z,24.32
2019-03-30T11:31:34.275Z,25.37
2019-03-30T11:34:02.110Z,28.38
2019-03-30T11:36:29.990Z,25.43
2019-03-30T11:38:57.774Z,20.60
2019-03-30T11:41:25.567Z,21.52
2019-03-30T11:43:53.505Z,22.48
2019-03-30T11:46:21.629Z,21.30
2019-03-30T11:48:49.487Z,17.73
2019-03-30T11:51:17.291Z,18.35
2019-03-30T11:53:45.087Z,18.52
2019-03-30T11:56:12.904Z,18.30
2019-03-30T11:58:41.619Z,20.77
2019-03-30T12:01:09.531Z,17.42
2019-03-30T12:03:40.019Z,18.42
2019-03-30T12:06:09.067Z,19.62
2019-03-30T12:08:36.981Z,15.70
2019-03-30T12:11:04.762Z,16.40
2019-03-30T12:13:32.615Z,17.35
2019-03-30T12:16:00.434Z,18.85
2019-03-30T12:18:28.219Z,15.05
2019-03-30T12:20:56.043Z,17.65
2019-03-30T12:23:23.856Z,16.95
2019-03-30T12:25:51.717Z,18.50
2019-03-30T12:28:19.591Z,15.10
2019-03-30T12:30:47.370Z,16.40
2019-03-30T12:33:15.175Z,23.95
2019-03-30T12:35:42.947Z,17.62
2019-03-30T12:38:10.767Z,14.78
2019-03-30T12:40:38.541Z,16.42
2019-03-30T12:43:06.382Z,19.57
2019-03-30T12:45:34.215Z,17.05
2019-03-30T12:48:02.103Z,14.35
2019-03-30T12:50:29.898Z,18.62
2019-03-30T12:52:57.685Z,18.85
2019-03-30T12:55:25.551Z,16.52
2019-03-30T12:57:53.408Z,22.93
2019-03-30T13:00:21.289Z,14.78
2019-03-30T13:02:49.236Z,21.52
2019-03-30T13:05:17.092Z,19.37
2019-03-30T13:07:44.967Z,19.12
2019-03-30T13:10:13.083Z,18.82
2019-03-30T13:12:40.858Z,19.73
2019-03-30T13:15:09.179Z,17.98
2019-03-30T13:17:36.950Z,26.97
2019-03-30T13:20:05.344Z,18.62
2019-03-30T13:22:33.196Z,21.40
2019-03-30T13:25:01.082Z,16.10
2019-03-30T13:27:28.990Z,16.05
2019-03-30T13:29:56.919Z,14.30
2019-03-30T13:32:24.819Z,9.98
2019-03-30T13:34:52.632Z,13.78
2019-03-30T13:37:20.723Z,12.35
2019-03-30T13:39:48.559Z,12.45
2019-03-30T13:42:16.412Z,10.93
2019-03-30T13:44:44.311Z,12.07
2019-03-30T13:47:13.081Z,11.35
2019-03-30T13:49:40.865Z,12.18
2019-03-30T13:52:08.817Z,15.50
2019-03-30T13:54:38.751Z,12.18
2019-03-30T13:57:06.470Z,11.43
2019-03-30T13:59:34.305Z,11.70
2019-03-30T14:02:02.179Z,12.25
2019-03-30T14:04:29.967Z,12.23
2019-03-30T14:06:57.913Z,10.55
2019-03-30T14:09:25.884Z,10.32
2019-03-30T14:11:53.703Z,12.30
2019-03-30T14:14:21.543Z,11.65
2019-03-30T14:16:49.367Z,11.78
2019-03-30T14:19:17.882Z,12.85
2019-03-30T14:21:45.903Z,10.28
2019-03-30T14:24:13.766Z,10.85
2019-03-30T14:26:41.557Z,12.07
2019-03-30T14:29:11.679Z,12.75
2019-03-30T14:31:39.506Z,13.28
2019-03-30T14:34:07.419Z,13.53
2019-03-30T14:36:35.198Z,24.57
2019-03-30T14:39:04.323Z,17.17
2019-03-30T14:41:32.225Z,15.65
2019-03-30T14:44:00.004Z,18.02
2019-03-30T14:46:27.919Z,15.28
2019-03-30T14:48:55.708Z,15.63
2019-03-30T14:51:23.483Z,11.78
2019-03-30T14:53:51.281Z,14.10
2019-03-30T14:56:19.068Z,18.92
2019-03-30T14:58:46.840Z,15.72
2019-03-30T15:01:14.735Z,12.82
2019-03-30T15:03:42.548Z,7.60
2019-03-30T15:06:10.391Z,10.48
2019-03-30T15:08:38.231Z,11.40
2019-03-30T15:11:06.052Z,11.35
2019-03-30T15:13:33.969Z,12.82
2019-03-30T15:16:01.747Z,12.28
2019-03-30T15:18:29.536Z,14.15
2019-03-30T15:20:57.330Z,13.98
2019-03-30T15:23:27.020Z,10.00
2019-03-30T15:25:54.822Z,12.10
2019-03-30T15:28:22.643Z,9.28
2019-03-30T15:30:50.518Z,7.60
2019-03-30T15:33:18.318Z,8.78
2019-03-30T15:35:46.113Z,6.58
2019-03-30T15:38:13.903Z,6.92
2019-03-30T15:40:41.731Z,11.15
2019-03-30T15:43:09.583Z,8.63
2019-03-30T15:45:37.495Z,3.05
2019-03-30T15:48:05.315Z,3.27
2019-03-30T15:50:33.363Z,5.70
2019-03-30T15:53:01.198Z,3.70
2019-03-30T15:55:29.018Z,3.95
2019-03-30T15:57:57.090Z,3.10
2019-03-30T16:00:25.095Z,2.70
2019-03-30T16:02:52.995Z,3.77
2019-03-30T16:05:20.846Z,4.15
2019-03-30T16:07:48.670Z,2.05
2019-03-30T16:10:16.535Z,2.90
2019-03-30T16:12:44.361Z,4.12
2019-03-30T16:15:12.604Z,2.98
2019-03-30T16:17:40.395Z,3.55
2019-03-30T16:20:09.024Z,5.25
2019-03-30T16:22:36.986Z,2.15
2019-03-30T16:25:05.441Z,2.35
2019-03-30T16:27:33.408Z,2.30
2019-03-30T16:30:01.394Z,3.27
2019-03-30T16:32:29.506Z,2.00
2019-03-30T16:34:57.464Z,1.75
2019-03-30T16:37:25.347Z,1.70
2019-03-30T16:39:53.205Z,2.12
2019-03-30T16:42:20.999Z,2.77
2019-03-30T16:44:50.666Z,4.45
2019-03-30T16:47:18.559Z,6.87
2019-03-30T16:49:47.099Z,4.60
2019-03-30T16:52:14.927Z,4.00
2019-03-30T16:54:42.711Z,6.05
2019-03-30T16:57:12.150Z,4.58
2019-03-30T16:59:39.983Z,4.03
2019-03-30T17:02:07.780Z,3.95
2019-03-30T17:04:35.592Z,4.78
2019-03-30T17:07:03.664Z,3.20
2019-03-30T17:09:31.483Z,2.75
2019-03-30T17:11:59.324Z,3.15
2019-03-30T17:14:27.119Z,5.72
2019-03-30T17:16:54.918Z,3.60
2019-03-30T17:19:22.766Z,4.30
2019-03-30T17:21:50.670Z,3.35
2019-03-30T17:24:18.495Z,2.55
2019-03-30T17:26:46.317Z,2.77
2019-03-30T17:29:14.165Z,5.17
2019-03-30T17:31:41.983Z,3.00
2019-03-30T17:34:09.795Z,2.67
2019-03-30T17:36:38.029Z,5.72
2019-03-30T17:39:08.301Z,3.50
2019-03-30T17:41:36.232Z,3.25
2019-03-30T17:44:04.151Z,4.37
2019-03-30T17:46:31.959Z,3.37
2019-03-30T17:48:59.735Z,5.12
2019-03-30T17:51:28.626Z,3.25
2019-03-30T17:53:56.657Z,3.20
2019-03-30T17:56:24.744Z,4.50
2019-03-30T17:58:53.005Z,3.77
2019-03-30T18:01:21.356Z,8.00
2019-03-30T18:03:49.262Z,5.37
2019-03-30T18:06:17.111Z,5.08
2019-03-30T18:08:44.983Z,8.28
2019-03-30T18:11:12.831Z,9.83
2019-03-30T18:13:40.703Z,7.87
2019-03-30T18:16:08.576Z,8.40
2019-03-30T18:18:36.420Z,8.20
2019-03-30T18:21:04.457Z,6.58
2019-03-30T18:23:32.355Z,8.13
2019-03-30T18:26:00.123Z,8.58
2019-03-30T18:28:28.040Z,10.13
2019-03-30T18:30:55.866Z,9.75
2019-03-30T18:33:23.947Z,9.23
2019-03-30T18:35:52.081Z,8.70
2019-03-30T18:38:20.384Z,10.20
2019-03-30T18:40:48.222Z,13.80
2019-03-30T18:43:18.252Z,10.78
2019-03-30T18:45:46.168Z,9.60
2019-03-30T18:48:15.327Z,8.73
2019-03-30T18:50:44.028Z,7.58
2019-03-30T18:53:12.464Z,6.78
2019-03-30T18:55:40.337Z,9.58
2019-03-30T18:58:08.238Z,7.77
2019-03-30T19:00:36.076Z,5.95
2019-03-30T19:03:04.084Z,4.95
2019-03-30T19:05:31.936Z,5.75
2019-03-30T19:08:01.559Z,5.45
2019-03-30T19:10:29.443Z,5.50
2019-03-30T19:12:57.328Z,6.00
2019-03-30T19:15:25.220Z,6.22
2019-03-30T19:17:53.098Z,5.20
2019-03-30T19:20:23.301Z,7.70
2019-03-30T19:22:51.459Z,6.58
2019-03-30T19:25:19.320Z,10.93
2019-03-30T19:27:47.129Z,8.17
2019-03-30T19:30:15.159Z,7.08
2019-03-30T19:32:43.075Z,8.13
2019-03-30T19:35:11.516Z,6.37
2019-03-30T19:37:39.577Z,9.38
2019-03-30T19:40:08.140Z,9.78
2019-03-30T19:42:36.032Z,7.47
2019-03-30T19:45:04.309Z,7.20
2019-03-30T19:47:32.243Z,7.90
2019-03-30T19:50:00.150Z,13.60
2019-03-30T19:52:39.285Z,14.63
2019-03-30T19:55:01.182Z,14.00
2019-03-30T19:57:29.041Z,7.50
2019-03-30T19:59:56.909Z,11.50
2019-03-30T20:02:24.974Z,9.07
2019-03-30T20:04:52.887Z,11.70
2019-03-30T20:07:20.855Z,40.10
2019-03-30T20:09:48.686Z,62.73
2019-03-30T20:12:16.650Z,56.90
2019-03-30T20:14:44.637Z,12.20
2019-03-30T20:17:12.561Z,17.80
2019-03-30T20:19:40.490Z,12.23
2019-03-30T20:22:11.143Z,12.30
2019-03-30T20:24:39.081Z,51.93
2019-03-30T20:27:06.919Z,64.10
2019-03-30T20:29:34.735Z,86.67
2019-03-30T20:32:02.551Z,73.10
2019-03-30T20:34:30.556Z,27.33
2019-03-30T20:36:58.460Z,25.17
2019-03-30T20:39:26.329Z,24.60
2019-03-30T20:41:54.224Z,51.13
2019-03-30T20:44:22.359Z,31.03
2019-03-30T20:46:52.484Z,27.23
2019-03-30T20:49:20.423Z,16.80
2019-03-30T20:51:48.278Z,15.90
2019-03-30T20:54:16.123Z,15.80
2019-03-30T20:56:43.971Z,14.43
2019-03-30T20:59:11.869Z,19.97
2019-03-30T21:01:39.720Z,11.70
2019-03-30T21:04:07.549Z,11.57
2019-03-30T21:06:35.543Z,11.73
2019-03-30T21:09:06.099Z,10.97
2019-03-30T21:11:33.887Z,11.37
2019-03-30T21:14:01.783Z,11.70
2019-03-30T21:16:29.627Z,9.47
2019-03-30T21:18:57.445Z,18.77
2019-03-30T21:21:25.208Z,30.77
2019-03-30T21:23:53.336Z,29.57
2019-03-30T21:26:21.297Z,26.63
2019-03-30T21:28:49.228Z,23.23
2019-03-30T21:31:17.136Z,29.93
2019-03-30T21:33:44.983Z,19.80
2019-03-30T21:36:12.883Z,23.67
2019-03-30T21:38:40.731Z,16.40
2019-03-30T21:41:08.632Z,17.57
2019-03-30T21:43:36.431Z,18.73
2019-03-30T21:46:04.276Z,13.53
2019-03-30T21:48:32.381Z,14.57
2019-03-30T21:51:00.350Z,12.20
2019-03-30T21:53:28.168Z,12.00
2019-03-30T21:55:55.959Z,8.83
2019-03-30T21:58:23.729Z,9.47
2019-03-30T22:00:51.567Z,16.23
2019-03-30T22:03:19.342Z,11.83
2019-03-30T22:05:47.127Z,13.90
2019-03-30T22:08:17.141Z,12.70
2019-03-30T22:10:44.639Z,11.03
2019-03-30T22:13:12.451Z,12.07
2019-03-30T22:15:40.256Z,8.50
2019-03-30T22:18:08.039Z,12.93
2019-03-30T22:20:35.842Z,11.23
2019-03-30T22:23:03.651Z,10.67
2019-03-30T22:25:31.433Z,16.63
2019-03-30T22:27:59.231Z,11.90
2019-03-30T22:30:27.112Z,22.37
2019-03-30T22:32:54.927Z,23.00
2019-03-30T22:35:22.735Z,30.37
2019-03-30T22:37:50.546Z,31.20
2019-03-30T22:40:18.375Z,27.10
2019-03-30T22:42:46.201Z,28.23
2019-03-30T22:45:14.015Z,38.47
2019-03-30T22:47:41.959Z,30.80
2019-03-30T22:50:09.908Z,18.97
2019-03-30T22:52:37.711Z,15.70
2019-03-30T22:55:05.649Z,17.23
2019-03-30T22:57:33.535Z,19.10
2019-03-30T23:00:01.407Z,12.93
2019-03-30T23:02:29.287Z,5.37
2019-03-30T23:04:57.076Z,7.57
2019-03-30T23:07:24.900Z,14.53
2019-03-30T23:09:52.685Z,8.97
2019-03-30T23:12:20.517Z,10.67
2019-03-30T23:14:48.394Z,7.87
2019-03-30T23:17:16.179Z,14.87
2019-03-30T23:19:43.968Z,7.77
2019-03-30T23:22:11.767Z,7.70
2019-03-30T23:24:39.626Z,15.93
2019-03-30T23:27:07.499Z,15.00
2019-03-30T23:29:35.279Z,16.23
2019-03-30T23:32:03.135Z,11.07
2019-03-30T23:34:31.066Z,8.13
2019-03-30T23:36:58.861Z,14.13
2019-03-30T23:39:26.645Z,13.30
2019-03-30T23:41:56.600Z,14.33
2019-03-30T23:44:24.492Z,12.83
2019-03-30T23:46:54.901Z,17.30
2019-03-30T23:49:22.736Z,15.60
2019-03-30T23:51:50.500Z,12.13
2019-03-30T23:54:18.275Z,12.90
2019-03-30T23:56:46.096Z,12.63
2019-03-30T23:59:13.877Z,8.30
